createdAt,value
2018-08-04T00:04:29.375Z,7.90
2018-08-04T00:06:59.587Z,9.10
2018-08-04T00:09:28.710Z,8.20
2018-08-04T00:11:58.588Z,7.28
2018-08-04T00:14:35.341Z,11.88
2018-08-04T00:17:06.063Z,9.05
2018-08-04T00:19:35.640Z,7.60
2018-08-04T00:22:12.069Z,7.07
2018-08-04T00:24:44.804Z,7.23
2018-08-04T00:32:49.980Z,9.48
2018-08-04T00:35:19.580Z,9.35
2018-08-04T00:37:56.697Z,8.32
2018-08-04T00:40:26.399Z,8.45
2018-08-04T00:43:12.943Z,8.25
2018-08-04T00:48:29.227Z,6.97
2018-08-04T00:51:05.864Z,8.55
2018-08-04T00:53:38.762Z,8.68
2018-08-04T00:56:15.378Z,7.70
2018-08-04T00:58:52.155Z,7.15
2018-08-04T01:06:57.066Z,7.65
2018-08-04T01:09:27.738Z,6.65
2018-08-04T01:11:57.551Z,8.35
2018-08-04T01:14:30.073Z,6.80
2018-08-04T01:17:06.663Z,6.25
2018-08-04T01:25:10.704Z,8.65
2018-08-04T01:27:47.334Z,6.60
2018-08-04T01:33:04.767Z,6.03
2018-08-04T01:35:34.749Z,9.43
2018-08-04T01:38:19.112Z,8.45
2018-08-04T01:40:51.699Z,5.73
2018-08-04T01:43:21.465Z,6.62
2018-08-04T01:45:52.361Z,7.28
2018-08-04T01:48:22.074Z,9.32
2018-08-04T01:50:59.162Z,6.93
2018-08-04T01:56:16.302Z,5.70
2018-08-04T01:58:46.080Z,6.78
2018-08-04T02:01:15.685Z,6.10
2018-08-04T02:03:46.428Z,6.47
2018-08-04T02:06:22.866Z,6.20
2018-08-04T02:08:58.246Z,6.10
2018-08-04T02:11:29.189Z,6.60
2018-08-04T02:13:58.937Z,7.10
2018-08-04T02:16:35.686Z,6.68
2018-08-04T02:19:04.483Z,6.32
2018-08-04T02:21:34.070Z,6.53
2018-08-04T02:26:58.024Z,6.07
2018-08-04T02:29:30.955Z,6.97
2018-08-04T02:32:00.641Z,6.68
2018-08-04T02:37:32.561Z,10.18
2018-08-04T02:40:03.405Z,10.38
2018-08-04T02:42:36.221Z,11.07
2018-08-04T02:45:05.078Z,8.85
2018-08-04T02:47:37.506Z,9.68
2018-08-04T02:50:08.281Z,7.43
2018-08-04T02:52:39.224Z,7.35
2018-08-04T03:00:50.949Z,9.38
2018-08-04T03:03:35.798Z,8.95
2018-08-04T03:06:12.275Z,8.05
2018-08-04T03:08:42.164Z,11.68
2018-08-04T03:11:11.444Z,8.20
2018-08-04T03:16:43.456Z,8.85
2018-08-04T03:19:12.492Z,8.63
2018-08-04T03:21:41.594Z,12.30
2018-08-04T03:26:58.221Z,9.77
2018-08-04T03:32:15.518Z,8.30
2018-08-04T03:34:45.433Z,9.57
2018-08-04T03:37:18.258Z,11.88
2018-08-04T03:39:48.128Z,9.77
2018-08-04T03:42:17.340Z,9.10
2018-08-04T03:44:46.597Z,10.82
2018-08-04T03:47:16.165Z,10.35
2018-08-04T03:55:21.182Z,9.85
2018-08-04T03:57:50.944Z,10.82
2018-08-04T04:00:35.368Z,10.35
2018-08-04T04:03:04.964Z,10.38
2018-08-04T04:05:34.837Z,10.82
2018-08-04T04:10:52.169Z,9.90
2018-08-04T04:13:22.851Z,14.15
2018-08-04T04:15:52.744Z,10.38
2018-08-04T04:18:29.351Z,10.93
2018-08-04T04:20:59.090Z,10.73
2018-08-04T04:23:29.641Z,10.82
2018-08-04T04:26:00.327Z,10.10
2018-08-04T04:28:29.086Z,12.07
2018-08-04T04:30:59.049Z,10.63
2018-08-04T04:33:28.678Z,11.43
2018-08-04T04:35:58.444Z,9.88
2018-08-04T04:38:28.120Z,9.77
2018-08-04T04:40:57.732Z,10.02
2018-08-04T04:43:34.385Z,10.27
2018-08-04T04:46:04.173Z,11.32
2018-08-04T04:48:33.974Z,9.77
2018-08-04T04:51:10.319Z,10.80
2018-08-04T04:53:40.042Z,11.50
2018-08-04T04:56:10.765Z,12.25
2018-08-04T05:01:27.156Z,10.93
2018-08-04T05:04:03.795Z,11.68
2018-08-04T05:06:33.557Z,11.52
2018-08-04T05:09:02.232Z,11.25
2018-08-04T05:11:31.926Z,14.45
2018-08-04T05:14:04.731Z,9.60
2018-08-04T05:16:34.413Z,8.80
2018-08-04T05:19:04.049Z,10.48
2018-08-04T05:21:33.083Z,9.93
2018-08-04T05:24:02.920Z,12.00
2018-08-04T05:26:32.548Z,9.20
2018-08-04T05:29:01.594Z,8.93
2018-08-04T05:31:32.218Z,9.75
2018-08-04T05:42:24.055Z,7.97
2018-08-04T05:44:52.696Z,8.90
2018-08-04T05:47:29.580Z,6.85
2018-08-04T05:49:59.213Z,12.15
2018-08-04T05:52:27.973Z,7.68
2018-08-04T05:54:58.909Z,7.40
2018-08-04T05:57:27.958Z,7.07
2018-08-04T05:59:57.599Z,5.82
2018-08-04T06:02:27.995Z,6.55
2018-08-04T06:07:44.337Z,5.30
2018-08-04T06:10:20.971Z,6.75
2018-08-04T06:18:26.999Z,6.20
2018-08-04T06:20:56.673Z,4.97
2018-08-04T06:23:26.482Z,7.15
2018-08-04T06:28:47.547Z,5.55
2018-08-04T06:31:16.489Z,7.30
2018-08-04T06:33:48.333Z,5.82
2018-08-04T06:36:17.299Z,5.40
2018-08-04T06:38:45.967Z,5.05
2018-08-04T06:41:18.749Z,6.68
2018-08-04T06:43:55.199Z,5.62
2018-08-04T06:49:11.588Z,5.97
2018-08-04T06:51:40.367Z,7.30
2018-08-04T06:54:10.147Z,5.87
2018-08-04T06:56:39.831Z,5.35
2018-08-04T07:02:03.867Z,6.60
2018-08-04T07:04:33.522Z,5.78
2018-08-04T07:07:03.428Z,5.55
2018-08-04T07:09:33.127Z,6.05
2018-08-04T07:12:02.736Z,5.18
2018-08-04T07:14:33.691Z,5.97
2018-08-04T07:22:38.093Z,10.25
2018-08-04T07:25:14.691Z,6.93
2018-08-04T07:27:44.515Z,11.48
2018-08-04T08:12:19.690Z,7.45
2018-08-04T08:14:49.837Z,6.90
2018-08-04T08:39:51.067Z,7.40
2018-08-04T08:42:20.202Z,6.93
2018-08-04T08:44:52.214Z,13.75
2018-08-04T09:52:20.978Z,8.52
2018-08-04T11:05:09.647Z,6.78
2018-08-04T11:16:17.903Z,13.18
2018-08-04T11:46:57.636Z,6.50
2018-08-04T11:55:06.819Z,7.93
2018-08-04T11:57:39.719Z,9.73
2018-08-04T12:25:44.461Z,6.47
2018-08-04T12:28:14.601Z,7.28
2018-08-04T12:30:43.594Z,8.18
2018-08-04T12:36:05.901Z,7.57
2018-08-04T12:38:35.370Z,7.00
2018-08-04T12:41:04.876Z,8.88
2018-08-04T12:43:34.405Z,7.90
2018-08-04T12:46:03.803Z,8.32
2018-08-04T13:02:40.349Z,8.77
2018-08-04T13:05:09.351Z,7.45
2018-08-04T13:07:40.272Z,7.55
2018-08-04T13:18:32.965Z,10.05
2018-08-04T13:26:42.141Z,7.82
2018-08-04T13:29:11.339Z,9.98
2018-08-04T13:34:46.840Z,9.02
2018-08-04T14:08:17.676Z,6.50
2018-08-04T14:10:51.067Z,6.40
2018-08-04T14:13:23.057Z,7.20
2018-08-04T14:24:24.058Z,7.45
2018-08-04T14:26:54.895Z,6.20
2018-08-04T14:29:26.517Z,6.30
2018-08-04T14:43:12.154Z,5.70
2018-08-04T15:22:07.318Z,5.05
2018-08-04T15:24:42.622Z,4.93
2018-08-04T15:27:27.098Z,4.65
2018-08-04T15:30:15.174Z,5.22
2018-08-04T15:32:53.504Z,6.12
2018-08-04T15:49:28.897Z,5.55
2018-08-04T15:52:04.289Z,3.90
2018-08-04T15:54:38.893Z,5.75
2018-08-04T16:58:45.833Z,5.47
2018-08-04T17:01:16.252Z,4.57
2018-08-04T17:03:44.951Z,5.68
2018-08-04T17:06:14.852Z,5.03
2018-08-04T17:08:46.633Z,4.85
2018-08-04T17:11:19.272Z,4.47
2018-08-04T17:13:49.476Z,5.53
2018-08-04T17:16:18.576Z,5.28
2018-08-04T17:18:47.684Z,3.80
2018-08-04T17:21:16.345Z,4.68
2018-08-04T17:23:44.978Z,4.63
2018-08-04T17:29:31.702Z,4.43
2018-08-04T17:32:00.716Z,4.68
2018-08-04T17:34:29.629Z,6.00
2018-08-04T17:36:59.462Z,5.73
2018-08-04T17:39:28.409Z,4.10
2018-08-04T17:41:57.426Z,3.55
2018-08-04T17:44:26.077Z,4.40
2018-08-04T17:46:54.772Z,3.85
2018-08-04T17:49:23.428Z,4.07
2018-08-04T17:52:00.121Z,5.70
2018-08-04T17:54:28.737Z,7.57
2018-08-04T17:56:57.412Z,4.28
2018-08-04T18:07:51.519Z,5.00
2018-08-04T18:10:20.169Z,5.62
2018-08-04T18:12:48.818Z,5.40
2018-08-04T18:18:05.029Z,4.70
2018-08-04T18:26:16.558Z,9.43
2018-08-04T18:31:40.454Z,4.70
2018-08-04T18:34:10.061Z,4.12
2018-08-04T18:53:31.888Z,4.55
2018-08-04T18:56:15.085Z,4.40
2018-08-04T19:01:42.035Z,4.45
2018-08-04T19:04:11.421Z,4.75
2018-08-04T19:06:41.076Z,4.95
2018-08-04T19:09:10.668Z,6.57
2018-08-04T19:11:41.944Z,4.50
2018-08-04T19:19:53.537Z,4.18
2018-08-04T19:22:22.242Z,5.62
2018-08-04T19:30:27.035Z,4.28
2018-08-04T19:38:32.776Z,4.05
2018-08-04T19:41:01.462Z,4.10
2018-08-04T19:52:00.599Z,4.75
2018-08-04T20:00:12.022Z,3.95
2018-08-04T20:19:41.709Z,4.00
2018-08-04T20:22:10.377Z,4.18
2018-08-04T20:24:39.011Z,4.18
2018-08-04T20:52:20.881Z,6.70
2018-08-04T20:54:50.431Z,5.47
2018-08-04T20:57:19.987Z,4.93
2018-08-04T21:05:26.699Z,4.70
2018-08-04T21:16:19.648Z,4.68
2018-08-04T21:21:40.445Z,4.32
2018-08-04T21:24:16.803Z,4.22
2018-08-04T21:32:20.652Z,3.67
2018-08-04T21:46:07.261Z,5.87
2018-08-04T21:48:36.339Z,3.62
2018-08-04T21:51:15.701Z,4.85
2018-08-04T21:53:45.294Z,3.50
2018-08-04T22:04:37.405Z,3.20
2018-08-04T22:07:22.100Z,4.18
2018-08-04T22:12:39.214Z,3.03
2018-08-04T22:15:08.696Z,2.60
2018-08-04T22:23:16.029Z,3.75
2018-08-04T22:25:56.023Z,3.10
2018-08-04T22:39:36.769Z,3.15
2018-08-04T22:50:29.230Z,4.28
2018-08-04T22:55:45.768Z,4.28
2018-08-04T23:37:29.183Z,3.50
2018-08-04T23:45:41.026Z,3.35
2018-08-04T23:50:57.195Z,3.50
2018-08-04T23:53:27.560Z,3.20
2018-08-04T23:55:56.561Z,5.20
2018-08-04T23:58:29.188Z,3.33
